sensor_id;sensor_type;location;lat;lon;timestamp;temperature;humidity
11505;DHT22;5809;53.262;10.408;2023-08-01T00:06:22;16.00;99.90
11505;DHT22;5809;53.262;10.408;2023-08-01T00:08:50;16.00;99.90
11505;DHT22;5809;53.262;10.408;2023-08-01T00:11:17;16.00;99.90
11505;DHT22;5809;53.262;10.408;2023-08-01T00:13:44;15.90;99.90
11505;DHT22;5809;53.262;10.408;2023-08-01T00:16:12;15.90;99.90
11505;DHT22;5809;53.262;10.408;2023-08-01T00:18:39;15.90;99.90
11505;DHT22;5809;53.262;10.408;2023-08-01T00:23:35;15.80;99.90
11505;DHT22;5809;53.262;10.408;2023-08-01T00:26:02;15.80;99.90
11505;DHT22;5809;53.262;10.408;2023-08-01T00:28:29;15.80;99.90
11505;DHT22;5809;53.262;10.408;2023-08-01T00:31:02;15.80;99.90
11505;DHT22;5809;53.262;10.408;2023-08-01T00:33:30;15.80;99.90
11505;DHT22;5809;53.262;10.408;2023-08-01T00:35:57;15.80;99.90
11505;DHT22;5809;53.262;10.408;2023-08-01T00:38:24;15.80;99.90
11505;DHT22;5809;53.262;10.408;2023-08-01T00:40:51;15.80;99.90
11505;DHT22;5809;53.262;10.408;2023-08-01T00:43:18;15.80;99.90
11505;DHT22;5809;53.262;10.408;2023-08-01T00:45:45;15.80;99.90
11505;DHT22;5809;53.262;10.408;2023-08-01T00:48:12;15.80;99.90
11505;DHT22;5809;53.262;10.408;2023-08-01T00:50:41;15.80;99.90
11505;DHT22;5809;53.262;10.408;2023-08-01T00:53:07;15.80;99.90
11505;DHT22;5809;53.262;10.408;2023-08-01T00:55:35;12.20;99.90
11505;DHT22;5809;53.262;10.408;2023-08-01T01:00:29;15.80;99.90
11505;DHT22;5809;53.262;10.408;2023-08-01T01:02:56;15.80;99.90
11505;DHT22;5809;53.262;10.408;2023-08-01T01:05:24;15.70;99.90
11505;DHT22;5809;53.262;10.408;2023-08-01T01:07:54;15.80;99.90
11505;DHT22;5809;53.262;10.408;2023-08-01T01:12:48;15.80;99.90
11505;DHT22;5809;53.262;10.408;2023-08-01T01:17:43;15.70;99.90
11505;DHT22;5809;53.262;10.408;2023-08-01T01:20:10;15.70;99.90
11505;DHT22;5809;53.262;10.408;2023-08-01T01:22:39;15.80;99.90
11505;DHT22;5809;53.262;10.408;2023-08-01T01:25:07;15.80;99.90
11505;DHT22;5809;53.262;10.408;2023-08-01T01:27:36;15.30;99.90
11505;DHT22;5809;53.262;10.408;2023-08-01T01:30:06;15.80;99.90
11505;DHT22;5809;53.262;10.408;2023-08-01T01:32:33;15.80;99.90
11505;DHT22;5809;53.262;10.408;2023-08-01T01:35:02;15.80;99.90
11505;DHT22;5809;53.262;10.408;2023-08-01T01:39:58;15.80;99.90
11505;DHT22;5809;53.262;10.408;2023-08-01T01:44:52;15.80;99.90
11505;DHT22;5809;53.262;10.408;2023-08-01T01:47:19;15.80;99.90
11505;DHT22;5809;53.262;10.408;2023-08-01T02:02:03;15.90;99.90
11505;DHT22;5809;53.262;10.408;2023-08-01T02:06:57;15.80;99.90
11505;DHT22;5809;53.262;10.408;2023-08-01T02:11:51;15.80;99.90
11505;DHT22;5809;53.262;10.408;2023-08-01T02:19:14;15.80;99.90
11505;DHT22;5809;53.262;10.408;2023-08-01T04:10:03;15.50;99.90
11505;DHT22;5809;53.262;10.408;2023-08-01T04:42:04;15.50;99.90
11505;DHT22;5809;53.262;10.408;2023-08-01T04:51:55;15.50;99.90
11505;DHT22;5809;53.262;10.408;2023-08-01T05:16:38;15.60;99.90
11505;DHT22;5809;53.262;10.408;2023-08-01T05:21:32;15.60;99.90
11505;DHT22;5809;53.262;10.408;2023-08-01T05:26:27;15.70;99.90
11505;DHT22;5809;53.262;10.408;2023-08-01T05:28:54;15.80;99.90
11505;DHT22;5809;53.262;10.408;2023-08-01T05:33:48;15.90;99.90
11505;DHT22;5809;53.262;10.408;2023-08-01T06:06:01;16.10;99.90
11505;DHT22;5809;53.262;10.408;2023-08-01T06:20:46;16.30;99.90
11505;DHT22;5809;53.262;10.408;2023-08-01T06:25:39;16.30;99.90
11505;DHT22;5809;53.262;10.408;2023-08-01T06:33:02;16.50;99.90
11505;DHT22;5809;53.262;10.408;2023-08-01T06:42:50;16.60;99.90
11505;DHT22;5809;53.262;10.408;2023-08-01T07:00:03;16.90;99.90
11505;DHT22;5809;53.262;10.408;2023-08-01T07:09:53;17.10;99.90
11505;DHT22;5809;53.262;10.408;2023-08-01T07:14:47;17.20;99.90
11505;DHT22;5809;53.262;10.408;2023-08-01T07:36:53;16.20;99.90
11505;DHT22;5809;53.262;10.408;2023-08-01T07:44:16;16.40;99.90
11505;DHT22;5809;53.262;10.408;2023-08-01T07:49:10;16.60;99.90
11505;DHT22;5809;53.262;10.408;2023-08-01T07:51:37;16.70;99.90
11505;DHT22;5809;53.262;10.408;2023-08-01T08:11:16;16.70;99.90
11505;DHT22;5809;53.262;10.408;2023-08-01T08:13:44;16.80;99.90
11505;DHT22;5809;53.262;10.408;2023-08-01T08:16:11;16.90;99.90
11505;DHT22;5809;53.262;10.408;2023-08-01T08:18:38;17.00;99.90
11505;DHT22;5809;53.262;10.408;2023-08-01T08:28:30;18.50;99.90
11505;DHT22;5809;53.262;10.408;2023-08-01T08:31:00;18.90;99.90
11505;DHT22;5809;53.262;10.408;2023-08-01T08:40:55;20.20;99.90
11505;DHT22;5809;53.262;10.408;2023-08-01T08:43:26;20.30;99.90
11505;DHT22;5809;53.262;10.408;2023-08-01T08:45:56;20.60;99.90
11505;DHT22;5809;53.262;10.408;2023-08-01T08:48:26;20.80;99.90
11505;DHT22;5809;53.262;10.408;2023-08-01T08:50:57;21.00;99.90
11505;DHT22;5809;53.262;10.408;2023-08-01T08:53:24;21.00;99.90
11505;DHT22;5809;53.262;10.408;2023-08-01T08:58:22;20.70;99.90
11505;DHT22;5809;53.262;10.408;2023-08-01T09:00:50;21.20;99.90
11505;DHT22;5809;53.262;10.408;2023-08-01T09:05:50;16.00;99.90
11505;DHT22;5809;53.262;10.408;2023-08-01T09:08:19;19.60;99.90
11505;DHT22;5809;53.262;10.408;2023-08-01T09:10:47;19.20;99.90
11505;DHT22;5809;53.262;10.408;2023-08-01T09:13:14;19.00;99.90
11505;DHT22;5809;53.262;10.408;2023-08-01T09:15:42;19.00;99.90
11505;DHT22;5809;53.262;10.408;2023-08-01T09:20:41;18.90;99.90
11505;DHT22;5809;53.262;10.408;2023-08-01T09:23:10;20.40;99.90
11505;DHT22;5809;53.262;10.408;2023-08-01T09:25:37;20.40;99.90
11505;DHT22;5809;53.262;10.408;2023-08-01T09:28:15;21.60;99.90
11505;DHT22;5809;53.262;10.408;2023-08-01T09:30:47;22.40;99.90
11505;DHT22;5809;53.262;10.408;2023-08-01T09:33:15;22.70;99.90
11505;DHT22;5809;53.262;10.408;2023-08-01T09:35:42;22.40;99.90
11505;DHT22;5809;53.262;10.408;2023-08-01T09:38:14;21.30;99.90
11505;DHT22;5809;53.262;10.408;2023-08-01T09:40:44;20.70;99.90
11505;DHT22;5809;53.262;10.408;2023-08-01T09:43:12;19.90;99.90
11505;DHT22;5809;53.262;10.408;2023-08-01T09:45:51;19.50;99.90
11505;DHT22;5809;53.262;10.408;2023-08-01T09:48:23;19.50;99.90
11505;DHT22;5809;53.262;10.408;2023-08-01T09:50:51;19.70;99.90
11505;DHT22;5809;53.262;10.408;2023-08-01T09:53:20;20.80;99.90
11505;DHT22;5809;53.262;10.408;2023-08-01T09:55:49;22.10;99.90
11505;DHT22;5809;53.262;10.408;2023-08-01T09:58:46;22.70;99.90
11505;DHT22;5809;53.262;10.408;2023-08-01T10:04:47;25.50;99.90
11505;DHT22;5809;53.262;10.408;2023-08-01T10:07:36;23.80;99.90
11505;DHT22;5809;53.262;10.408;2023-08-01T10:21:13;21.10;99.90
11505;DHT22;5809;53.262;10.408;2023-08-01T10:23:58;23.30;99.90
11505;DHT22;5809;53.262;10.408;2023-08-01T10:27:25;23.70;99.90
11505;DHT22;5809;53.262;10.408;2023-08-01T10:30:50;22.40;99.90
11505;DHT22;5809;53.262;10.408;2023-08-01T10:40:33;22.20;99.90
11505;DHT22;5809;53.262;10.408;2023-08-01T10:43:00;26.00;99.90
11505;DHT22;5809;53.262;10.408;2023-08-01T10:45:27;25.80;99.90
11505;DHT22;5809;53.262;10.408;2023-08-01T10:48:06;25.70;99.90
11505;DHT22;5809;53.262;10.408;2023-08-01T10:50:34;25.70;99.90
11505;DHT22;5809;53.262;10.408;2023-08-01T10:53:03;26.20;99.90
11505;DHT22;5809;53.262;10.408;2023-08-01T10:55:39;26.90;99.90
11505;DHT22;5809;53.262;10.408;2023-08-01T10:58:06;26.70;99.90
11505;DHT22;5809;53.262;10.408;2023-08-01T11:00:33;25.60;99.90
11505;DHT22;5809;53.262;10.408;2023-08-01T11:03:02;25.70;99.90
11505;DHT22;5809;53.262;10.408;2023-08-01T11:05:29;26.00;99.90
11505;DHT22;5809;53.262;10.408;2023-08-01T11:07:58;26.50;99.90
11505;DHT22;5809;53.262;10.408;2023-08-01T11:10:25;26.90;99.90
11505;DHT22;5809;53.262;10.408;2023-08-01T11:12:53;25.90;99.90
11505;DHT22;5809;53.262;10.408;2023-08-01T11:15:20;25.00;99.90
11505;DHT22;5809;53.262;10.408;2023-08-01T11:17:50;24.70;99.90
11505;DHT22;5809;53.262;10.408;2023-08-01T11:20:20;24.70;99.90
11505;DHT22;5809;53.262;10.408;2023-08-01T11:22:53;25.70;99.90
11505;DHT22;5809;53.262;10.408;2023-08-01T11:25:30;25.80;99.90
11505;DHT22;5809;53.262;10.408;2023-08-01T11:27:57;26.40;99.90
11505;DHT22;5809;53.262;10.408;2023-08-01T11:30:30;27.10;99.90
11505;DHT22;5809;53.262;10.408;2023-08-01T11:32:58;27.70;99.90
11505;DHT22;5809;53.262;10.408;2023-08-01T11:35:26;26.70;99.90
11505;DHT22;5809;53.262;10.408;2023-08-01T11:37:53;25.50;99.90
11505;DHT22;5809;53.262;10.408;2023-08-01T11:40:21;24.10;99.90
11505;DHT22;5809;53.262;10.408;2023-08-01T11:42:49;23.60;99.90
11505;DHT22;5809;53.262;10.408;2023-08-01T11:45:17;24.30;99.90
11505;DHT22;5809;53.262;10.408;2023-08-01T11:47:45;25.60;99.90
11505;DHT22;5809;53.262;10.408;2023-08-01T11:50:13;24.70;99.90
11505;DHT22;5809;53.262;10.408;2023-08-01T11:52:45;24.20;99.90
11505;DHT22;5809;53.262;10.408;2023-08-01T11:55:19;23.70;99.90
11505;DHT22;5809;53.262;10.408;2023-08-01T11:57:52;22.50;99.90
11505;DHT22;5809;53.262;10.408;2023-08-01T12:00:21;21.20;99.90
11505;DHT22;5809;53.262;10.408;2023-08-01T12:02:49;17.90;99.90
11505;DHT22;5809;53.262;10.408;2023-08-01T12:05:21;15.60;99.90
11505;DHT22;5809;53.262;10.408;2023-08-01T12:07:50;15.60;99.90
11505;DHT22;5809;53.262;10.408;2023-08-01T12:10:17;15.40;99.90
11505;DHT22;5809;53.262;10.408;2023-08-01T12:12:45;15.40;99.90
11505;DHT22;5809;53.262;10.408;2023-08-01T12:15:13;15.70;99.90
11505;DHT22;5809;53.262;10.408;2023-08-01T12:17:39;15.80;99.90
11505;DHT22;5809;53.262;10.408;2023-08-01T12:20:07;15.90;99.90
11505;DHT22;5809;53.262;10.408;2023-08-01T12:22:35;16.40;99.90
11505;DHT22;5809;53.262;10.408;2023-08-01T12:25:03;17.00;99.90
11505;DHT22;5809;53.262;10.408;2023-08-01T12:27:30;18.00;99.90
11505;DHT22;5809;53.262;10.408;2023-08-01T12:29:57;19.50;99.90
11505;DHT22;5809;53.262;10.408;2023-08-01T12:32:24;20.80;99.90
11505;DHT22;5809;53.262;10.408;2023-08-01T12:34:51;21.80;99.90
11505;DHT22;5809;53.262;10.408;2023-08-01T12:37:18;21.90;99.90
11505;DHT22;5809;53.262;10.408;2023-08-01T12:39:45;22.50;99.90
11505;DHT22;5809;53.262;10.408;2023-08-01T12:42:13;21.70;99.90
11505;DHT22;5809;53.262;10.408;2023-08-01T12:44:40;20.40;99.90
11505;DHT22;5809;53.262;10.408;2023-08-01T12:47:06;19.20;99.90
11505;DHT22;5809;53.262;10.408;2023-08-01T12:49:37;18.20;99.90
11505;DHT22;5809;53.262;10.408;2023-08-01T12:52:04;17.50;99.90
11505;DHT22;5809;53.262;10.408;2023-08-01T12:54:31;16.90;99.90
11505;DHT22;5809;53.262;10.408;2023-08-01T12:56:57;16.90;99.90
11505;DHT22;5809;53.262;10.408;2023-08-01T12:59:26;16.80;99.90
11505;DHT22;5809;53.262;10.408;2023-08-01T13:01:52;16.80;99.90
11505;DHT22;5809;53.262;10.408;2023-08-01T13:04:19;17.00;99.90
11505;DHT22;5809;53.262;10.408;2023-08-01T13:06:46;17.00;99.90
11505;DHT22;5809;53.262;10.408;2023-08-01T13:09:13;17.00;99.90
11505;DHT22;5809;53.262;10.408;2023-08-01T13:11:40;17.10;99.90
11505;DHT22;5809;53.262;10.408;2023-08-01T13:14:09;17.10;99.90
11505;DHT22;5809;53.262;10.408;2023-08-01T13:16:37;17.20;99.90
11505;DHT22;5809;53.262;10.408;2023-08-01T13:19:04;17.20;99.90
11505;DHT22;5809;53.262;10.408;2023-08-01T13:21:31;17.20;99.90
11505;DHT22;5809;53.262;10.408;2023-08-01T13:23:59;17.20;99.90
11505;DHT22;5809;53.262;10.408;2023-08-01T13:26:29;17.20;99.90
11505;DHT22;5809;53.262;10.408;2023-08-01T13:28:56;19.20;99.90
11505;DHT22;5809;53.262;10.408;2023-08-01T13:31:23;19.20;99.90
11505;DHT22;5809;53.262;10.408;2023-08-01T13:33:52;20.70;99.90
11505;DHT22;5809;53.262;10.408;2023-08-01T13:36:18;21.50;99.90
11505;DHT22;5809;53.262;10.408;2023-08-01T13:38:45;22.10;99.90
11505;DHT22;5809;53.262;10.408;2023-08-01T13:41:13;22.50;99.90
11505;DHT22;5809;53.262;10.408;2023-08-01T13:43:40;21.70;99.90
11505;DHT22;5809;53.262;10.408;2023-08-01T13:46:12;21.60;99.90
11505;DHT22;5809;53.262;10.408;2023-08-01T13:48:40;20.80;99.90
11505;DHT22;5809;53.262;10.408;2023-08-01T13:51:08;21.10;99.90
11505;DHT22;5809;53.262;10.408;2023-08-01T13:53:35;22.00;99.90
11505;DHT22;5809;53.262;10.408;2023-08-01T13:56:06;22.80;99.90
11505;DHT22;5809;53.262;10.408;2023-08-01T14:01:02;22.90;99.90
11505;DHT22;5809;53.262;10.408;2023-08-01T14:03:29;21.40;99.90
11505;DHT22;5809;53.262;10.408;2023-08-01T14:05:56;20.40;99.90
11505;DHT22;5809;53.262;10.408;2023-08-01T14:15:46;17.80;99.90
11505;DHT22;5809;53.262;10.408;2023-08-01T14:18:12;17.20;99.90
11505;DHT22;5809;53.262;10.408;2023-08-01T14:20:39;17.00;99.90
11505;DHT22;5809;53.262;10.408;2023-08-01T14:23:06;16.90;99.90
11505;DHT22;5809;53.262;10.408;2023-08-01T14:28:03;18.60;99.90
11505;DHT22;5809;53.262;10.408;2023-08-01T14:35:27;18.70;99.90
11505;DHT22;5809;53.262;10.408;2023-08-01T14:45:17;17.60;99.90
11505;DHT22;5809;53.262;10.408;2023-08-01T14:47:44;17.20;99.90
11505;DHT22;5809;53.262;10.408;2023-08-01T14:52:39;16.90;99.90
11505;DHT22;5809;53.262;10.408;2023-08-01T14:55:07;16.90;99.90
11505;DHT22;5809;53.262;10.408;2023-08-01T15:00:04;16.60;99.90
11505;DHT22;5809;53.262;10.408;2023-08-01T15:02:31;16.40;99.90
11505;DHT22;5809;53.262;10.408;2023-08-01T15:09:53;16.20;99.90
11505;DHT22;5809;53.262;10.408;2023-08-01T15:14:49;16.20;99.90
11505;DHT22;5809;53.262;10.408;2023-08-01T15:17:18;16.20;99.90
11505;DHT22;5809;53.262;10.408;2023-08-01T15:34:30;17.60;99.90
11505;DHT22;5809;53.262;10.408;2023-08-01T15:36:57;17.70;99.90
11505;DHT22;5809;53.262;10.408;2023-08-01T15:41:51;17.60;99.90
11505;DHT22;5809;53.262;10.408;2023-08-01T15:46:44;17.20;99.90
11505;DHT22;5809;53.262;10.408;2023-08-01T16:01:29;17.60;99.90
11505;DHT22;5809;53.262;10.408;2023-08-01T16:06:23;17.80;99.90
11505;DHT22;5809;53.262;10.408;2023-08-01T16:13:45;18.00;99.90
11505;DHT22;5809;53.262;10.408;2023-08-01T16:18:39;18.10;99.90
11505;DHT22;5809;53.262;10.408;2023-08-01T16:26:03;18.00;99.90
11505;DHT22;5809;53.262;10.408;2023-08-01T16:30:57;18.10;99.90
11505;DHT22;5809;53.262;10.408;2023-08-01T16:40:45;18.00;99.90
11505;DHT22;5809;53.262;10.408;2023-08-01T16:43:14;18.00;99.90
11505;DHT22;5809;53.262;10.408;2023-08-01T16:45:41;17.80;99.90
11505;DHT22;5809;53.262;10.408;2023-08-01T16:48:08;17.10;99.90
11505;DHT22;5809;53.262;10.408;2023-08-01T16:55:30;16.20;99.90
11505;DHT22;5809;53.262;10.408;2023-08-01T17:05:21;16.10;99.90
11505;DHT22;5809;53.262;10.408;2023-08-01T17:22:33;16.70;99.90
11505;DHT22;5809;53.262;10.408;2023-08-01T17:29:55;17.00;99.90
11505;DHT22;5809;53.262;10.408;2023-08-01T17:34:51;17.20;99.90
11505;DHT22;5809;53.262;10.408;2023-08-01T17:37:17;17.10;99.90
11505;DHT22;5809;53.262;10.408;2023-08-01T17:42:11;17.00;99.90
11505;DHT22;5809;53.262;10.408;2023-08-01T17:47:06;17.00;99.90
11505;DHT22;5809;53.262;10.408;2023-08-01T17:52:02;17.00;99.90
11505;DHT22;5809;53.262;10.408;2023-08-01T17:59:24;16.90;99.90
11505;DHT22;5809;53.262;10.408;2023-08-01T18:04:18;16.80;99.90
11505;DHT22;5809;53.262;10.408;2023-08-01T18:14:11;16.50;99.90
11505;DHT22;5809;53.262;10.408;2023-08-01T18:21:33;16.30;99.90
11505;DHT22;5809;53.262;10.408;2023-08-01T18:26:34;16.20;99.90
11505;DHT22;5809;53.262;10.408;2023-08-01T18:31:29;16.20;99.90
11505;DHT22;5809;53.262;10.408;2023-08-01T18:33:57;16.20;99.90
11505;DHT22;5809;53.262;10.408;2023-08-01T18:36:23;16.20;99.90
11505;DHT22;5809;53.262;10.408;2023-08-01T18:38:51;16.10;99.90
11505;DHT22;5809;53.262;10.408;2023-08-01T18:41:17;16.10;99.90
11505;DHT22;5809;53.262;10.408;2023-08-01T18:46:13;15.90;99.90
11505;DHT22;5809;53.262;10.408;2023-08-01T18:48:44;15.90;99.90
11505;DHT22;5809;53.262;10.408;2023-08-01T18:53:40;15.80;99.90
11505;DHT22;5809;53.262;10.408;2023-08-01T18:56:07;15.70;99.90
11505;DHT22;5809;53.262;10.408;2023-08-01T19:06:08;15.50;99.90
11505;DHT22;5809;53.262;10.408;2023-08-01T19:11:02;15.40;99.90
11505;DHT22;5809;53.262;10.408;2023-08-01T19:13:29;15.40;99.90
11505;DHT22;5809;53.262;10.408;2023-08-01T19:28:18;15.50;99.90
11505;DHT22;5809;53.262;10.408;2023-08-01T19:33:12;15.40;99.90
11505;DHT22;5809;53.262;10.408;2023-08-01T19:35:41;15.30;99.90
11505;DHT22;5809;53.262;10.408;2023-08-01T19:43:07;15.20;99.90
11505;DHT22;5809;53.262;10.408;2023-08-01T19:48:01;15.10;99.90
11505;DHT22;5809;53.262;10.408;2023-08-01T19:50:30;15.10;99.90
11505;DHT22;5809;53.262;10.408;2023-08-01T19:52:58;15.00;99.90
11505;DHT22;5809;53.262;10.408;2023-08-01T19:55:25;15.00;99.90
11505;DHT22;5809;53.262;10.408;2023-08-01T19:57:53;15.00;99.90
11505;DHT22;5809;53.262;10.408;2023-08-01T20:00:20;15.00;99.90
11505;DHT22;5809;53.262;10.408;2023-08-01T20:02:47;14.90;99.90
11505;DHT22;5809;53.262;10.408;2023-08-01T20:05:14;14.90;99.90
11505;DHT22;5809;53.262;10.408;2023-08-01T20:10:10;14.90;99.90
11505;DHT22;5809;53.262;10.408;2023-08-01T20:15:04;14.80;99.90
11505;DHT22;5809;53.262;10.408;2023-08-01T20:17:32;14.80;99.90
11505;DHT22;5809;53.262;10.408;2023-08-01T20:19:59;14.80;99.90
11505;DHT22;5809;53.262;10.408;2023-08-01T20:22:26;14.80;99.90
11505;DHT22;5809;53.262;10.408;2023-08-01T20:24:54;14.80;99.90
11505;DHT22;5809;53.262;10.408;2023-08-01T20:27:22;14.80;99.90
11505;DHT22;5809;53.262;10.408;2023-08-01T20:29:49;14.70;99.90
11505;DHT22;5809;53.262;10.408;2023-08-01T20:32:16;14.70;99.90
11505;DHT22;5809;53.262;10.408;2023-08-01T20:34:44;14.70;99.90
11505;DHT22;5809;53.262;10.408;2023-08-01T20:39:38;14.70;99.90
11505;DHT22;5809;53.262;10.408;2023-08-01T20:44:34;14.60;99.90
11505;DHT22;5809;53.262;10.408;2023-08-01T20:47:01;14.70;99.90
11505;DHT22;5809;53.262;10.408;2023-08-01T20:49:28;14.60;99.90
11505;DHT22;5809;53.262;10.408;2023-08-01T20:51:55;14.60;99.90
11505;DHT22;5809;53.262;10.408;2023-08-01T20:54:22;14.70;99.90
11505;DHT22;5809;53.262;10.408;2023-08-01T20:56:49;14.70;99.90
11505;DHT22;5809;53.262;10.408;2023-08-01T21:01:45;14.70;99.90
11505;DHT22;5809;53.262;10.408;2023-08-01T21:04:12;14.70;99.90
11505;DHT22;5809;53.262;10.408;2023-08-01T21:06:38;14.70;99.90
11505;DHT22;5809;53.262;10.408;2023-08-01T21:09:05;14.70;99.90
11505;DHT22;5809;53.262;10.408;2023-08-01T21:11:32;14.70;99.90
11505;DHT22;5809;53.262;10.408;2023-08-01T21:13:59;14.60;99.90
11505;DHT22;5809;53.262;10.408;2023-08-01T21:16:26;14.60;99.90
11505;DHT22;5809;53.262;10.408;2023-08-01T21:18:54;14.60;99.90
11505;DHT22;5809;53.262;10.408;2023-08-01T21:21:21;14.60;99.90
11505;DHT22;5809;53.262;10.408;2023-08-01T21:23:49;14.50;99.90
11505;DHT22;5809;53.262;10.408;2023-08-01T21:26:16;14.50;99.90
11505;DHT22;5809;53.262;10.408;2023-08-01T21:28:43;14.50;99.90
11505;DHT22;5809;53.262;10.408;2023-08-01T21:31:10;14.40;99.90
11505;DHT22;5809;53.262;10.408;2023-08-01T21:36:06;14.40;99.90
11505;DHT22;5809;53.262;10.408;2023-08-01T21:41:01;14.40;99.90
11505;DHT22;5809;53.262;10.408;2023-08-01T21:43:27;14.40;99.90
11505;DHT22;5809;53.262;10.408;2023-08-01T21:45:55;14.40;99.90
11505;DHT22;5809;53.262;10.408;2023-08-01T21:48:22;14.40;99.90
11505;DHT22;5809;53.262;10.408;2023-08-01T21:50:49;14.30;99.90
11505;DHT22;5809;53.262;10.408;2023-08-01T21:53:18;14.30;99.90
11505;DHT22;5809;53.262;10.408;2023-08-01T21:55:45;14.20;99.90
11505;DHT22;5809;53.262;10.408;2023-08-01T21:58:13;14.30;99.90
11505;DHT22;5809;53.262;10.408;2023-08-01T22:00:40;14.30;99.90
11505;DHT22;5809;53.262;10.408;2023-08-01T22:03:07;14.30;99.90
11505;DHT22;5809;53.262;10.408;2023-08-01T22:05:34;14.30;99.90
11505;DHT22;5809;53.262;10.408;2023-08-01T22:08:01;14.30;99.90
11505;DHT22;5809;53.262;10.408;2023-08-01T22:10:29;14.30;99.90
11505;DHT22;5809;53.262;10.408;2023-08-01T22:12:57;14.30;99.90
11505;DHT22;5809;53.262;10.408;2023-08-01T22:15:24;14.30;99.90
11505;DHT22;5809;53.262;10.408;2023-08-01T22:20:19;14.30;99.90
11505;DHT22;5809;53.262;10.408;2023-08-01T22:22:47;14.30;99.90
11505;DHT22;5809;53.262;10.408;2023-08-01T22:25:15;14.20;99.90
11505;DHT22;5809;53.262;10.408;2023-08-01T22:27:43;14.20;99.90
11505;DHT22;5809;53.262;10.408;2023-08-01T22:30:10;14.20;99.90
11505;DHT22;5809;53.262;10.408;2023-08-01T22:32:37;14.20;99.90
11505;DHT22;5809;53.262;10.408;2023-08-01T22:35:04;14.20;99.90
11505;DHT22;5809;53.262;10.408;2023-08-01T22:37:31;14.20;99.90
11505;DHT22;5809;53.262;10.408;2023-08-01T22:39:59;14.20;99.90
11505;DHT22;5809;53.262;10.408;2023-08-01T22:42:26;14.10;99.90
11505;DHT22;5809;53.262;10.408;2023-08-01T22:44:54;14.10;99.90
11505;DHT22;5809;53.262;10.408;2023-08-01T22:47:21;14.10;99.90
11505;DHT22;5809;53.262;10.408;2023-08-01T22:49:48;14.10;99.90
11505;DHT22;5809;53.262;10.408;2023-08-01T22:52:15;14.10;99.90
11505;DHT22;5809;53.262;10.408;2023-08-01T22:54:42;14.10;99.90
11505;DHT22;5809;53.262;10.408;2023-08-01T22:59:36;14.10;99.90
11505;DHT22;5809;53.262;10.408;2023-08-01T23:02:05;14.10;99.90
11505;DHT22;5809;53.262;10.408;2023-08-01T23:04:32;14.10;99.90
11505;DHT22;5809;53.262;10.408;2023-08-01T23:06:58;14.10;99.90
11505;DHT22;5809;53.262;10.408;2023-08-01T23:11:52;14.10;99.90
11505;DHT22;5809;53.262;10.408;2023-08-01T23:16:46;14.20;99.90
11505;DHT22;5809;53.262;10.408;2023-08-01T23:19:15;14.20;99.90
11505;DHT22;5809;53.262;10.408;2023-08-01T23:21:42;14.20;99.90
11505;DHT22;5809;53.262;10.408;2023-08-01T23:24:09;14.20;99.90
11505;DHT22;5809;53.262;10.408;2023-08-01T23:26:35;14.30;99.90
11505;DHT22;5809;53.262;10.408;2023-08-01T23:29:02;14.40;99.90
11505;DHT22;5809;53.262;10.408;2023-08-01T23:33:56;14.40;99.90
11505;DHT22;5809;53.262;10.408;2023-08-01T23:36:24;14.40;99.90
11505;DHT22;5809;53.262;10.408;2023-08-01T23:41:19;14.50;99.90
11505;DHT22;5809;53.262;10.408;2023-08-01T23:43:46;14.50;99.90
11505;DHT22;5809;53.262;10.408;2023-08-01T23:46:13;14.50;99.90
11505;DHT22;5809;53.262;10.408;2023-08-01T23:48:39;14.50;99.90
11505;DHT22;5809;53.262;10.408;2023-08-01T23:51:07;14.50;99.90
11505;DHT22;5809;53.262;10.408;2023-08-01T23:53:36;14.50;99.90
11505;DHT22;5809;53.262;10.408;2023-08-01T23:58:30;14.60;99.90
